sensor_id;sensor_type;location;lat;lon;timestamp;pressure;altitude;pressure_sealevel;temperature;humidity
33432;BME280;35187;31.882;34.828;2023-04-23T00:01:23;100390;;;22;46
33432;BME280;35187;31.882;34.828;2023-04-23T00:03:56;100390;;;22;46
33432;BME280;35187;31.882;34.828;2023-04-23T00:06:34;100390;;;22;46
33432;BME280;35187;31.882;34.828;2023-04-23T00:09:10;100380;;;22;46
33432;BME280;35187;31.882;34.828;2023-04-23T00:11:41;100380;;;22;46
33432;BME280;35187;31.882;34.828;2023-04-23T00:14:12;100380;;;22;46
33432;BME280;35187;31.882;34.828;2023-04-23T00:16:42;100380;;;22;46
33432;BME280;35187;31.882;34.828;2023-04-23T00:19:13;100380;;;22;46
33432;BME280;35187;31.882;34.828;2023-04-23T00:21:42;100380;;;22;46
33432;BME280;35187;31.882;34.828;2023-04-23T00:24:12;100380;;;21;46
33432;BME280;35187;31.882;34.828;2023-04-23T00:26:41;100380;;;22;46
33432;BME280;35187;31.882;34.828;2023-04-23T00:29:12;100370;;;21;46
33432;BME280;35187;31.882;34.828;2023-04-23T00:31:42;100370;;;21;46
33432;BME280;35187;31.882;34.828;2023-04-23T00:34:11;100380;;;22;46
33432;BME280;35187;31.882;34.828;2023-04-23T00:36:41;100380;;;22;46
33432;BME280;35187;31.882;34.828;2023-04-23T00:39:18;100380;;;21;46
33432;BME280;35187;31.882;34.828;2023-04-23T00:41:47;100380;;;22;46
33432;BME280;35187;31.882;34.828;2023-04-23T00:44:16;100370;;;22;46
33432;BME280;35187;31.882;34.828;2023-04-23T00:46:50;100370;;;21;46
33432;BME280;35187;31.882;34.828;2023-04-23T00:49:21;100370;;;22;46
33432;BME280;35187;31.882;34.828;2023-04-23T00:51:51;100370;;;21;45
33432;BME280;35187;31.882;34.828;2023-04-23T00:54:20;100360;;;22;45
33432;BME280;35187;31.882;34.828;2023-04-23T00:56:49;100360;;;22;45
33432;BME280;35187;31.882;34.828;2023-04-23T00:59:19;100360;;;21;45
33432;BME280;35187;31.882;34.828;2023-04-23T01:01:48;100370;;;22;45
33432;BME280;35187;31.882;34.828;2023-04-23T01:04:17;100370;;;21;45
33432;BME280;35187;31.882;34.828;2023-04-23T01:06:48;100370;;;21;45
33432;BME280;35187;31.882;34.828;2023-04-23T01:09:17;100370;;;21;45
33432;BME280;35187;31.882;34.828;2023-04-23T01:11:46;100370;;;22;45
33432;BME280;35187;31.882;34.828;2023-04-23T01:14:17;100370;;;21;45
33432;BME280;35187;31.882;34.828;2023-04-23T01:16:46;100370;;;21;45
33432;BME280;35187;31.882;34.828;2023-04-23T01:19:16;100370;;;21;45
33432;BME280;35187;31.882;34.828;2023-04-23T01:21:46;100360;;;21;45
33432;BME280;35187;31.882;34.828;2023-04-23T01:24:17;100370;;;21;45
33432;BME280;35187;31.882;34.828;2023-04-23T01:26:51;100370;;;21;45
33432;BME280;35187;31.882;34.828;2023-04-23T01:29:21;100360;;;21;45
33432;BME280;35187;31.882;34.828;2023-04-23T01:31:51;100360;;;21;45
33432;BME280;35187;31.882;34.828;2023-04-23T01:34:21;100360;;;21;45
33432;BME280;35187;31.882;34.828;2023-04-23T01:36:50;100360;;;21;45
33432;BME280;35187;31.882;34.828;2023-04-23T01:39:20;100360;;;21;45
33432;BME280;35187;31.882;34.828;2023-04-23T01:41:49;100370;;;21;45
33432;BME280;35187;31.882;34.828;2023-04-23T01:44:26;100370;;;21;45
33432;BME280;35187;31.882;34.828;2023-04-23T01:46:55;100370;;;21;45
33432;BME280;35187;31.882;34.828;2023-04-23T01:49:24;100370;;;21;45
33432;BME280;35187;31.882;34.828;2023-04-23T01:51:58;100370;;;21;45
33432;BME280;35187;31.882;34.828;2023-04-23T01:54:27;100360;;;21;45
33432;BME280;35187;31.882;34.828;2023-04-23T01:56:56;100360;;;21;45
33432;BME280;35187;31.882;34.828;2023-04-23T01:59:25;100370;;;21;45
33432;BME280;35187;31.882;34.828;2023-04-23T02:01:54;100360;;;21;45
33432;BME280;35187;31.882;34.828;2023-04-23T02:04:22;100360;;;21;45
33432;BME280;35187;31.882;34.828;2023-04-23T02:06:51;100360;;;21;45
33432;BME280;35187;31.882;34.828;2023-04-23T02:09:30;100360;;;21;44
33432;BME280;35187;31.882;34.828;2023-04-23T02:11:59;100370;;;21;45
33432;BME280;35187;31.882;34.828;2023-04-23T02:14:28;100370;;;21;45
33432;BME280;35187;31.882;34.828;2023-04-23T02:16:57;100370;;;21;45
33432;BME280;35187;31.882;34.828;2023-04-23T02:19:26;100380;;;21;45
33432;BME280;35187;31.882;34.828;2023-04-23T02:21:54;100380;;;21;45
33432;BME280;35187;31.882;34.828;2023-04-23T02:24:23;100380;;;21;44
33432;BME280;35187;31.882;34.828;2023-04-23T02:26:52;100380;;;21;44
33432;BME280;35187;31.882;34.828;2023-04-23T02:29:27;100380;;;21;44
33432;BME280;35187;31.882;34.828;2023-04-23T02:31:56;100380;;;21;44
33432;BME280;35187;31.882;34.828;2023-04-23T02:34:25;100380;;;21;44
33432;BME280;35187;31.882;34.828;2023-04-23T02:36:53;100380;;;21;44
33432;BME280;35187;31.882;34.828;2023-04-23T02:39:22;100370;;;21;44
33432;BME280;35187;31.882;34.828;2023-04-23T02:41:51;100370;;;21;44
33432;BME280;35187;31.882;34.828;2023-04-23T02:44:20;100360;;;21;44
33432;BME280;35187;31.882;34.828;2023-04-23T02:46:49;100360;;;21;44
33432;BME280;35187;31.882;34.828;2023-04-23T02:49:18;100360;;;21;44
33432;BME280;35187;31.882;34.828;2023-04-23T02:51:49;100360;;;21;44
33432;BME280;35187;31.882;34.828;2023-04-23T02:54:17;100360;;;21;44
33432;BME280;35187;31.882;34.828;2023-04-23T02:56:48;100360;;;21;44
33432;BME280;35187;31.882;34.828;2023-04-23T02:59:17;100360;;;21;44
33432;BME280;35187;31.882;34.828;2023-04-23T03:01:45;100370;;;21;44
33432;BME280;35187;31.882;34.828;2023-04-23T03:04:16;100370;;;21;44
33432;BME280;35187;31.882;34.828;2023-04-23T03:06:45;100380;;;21;44
33432;BME280;35187;31.882;34.828;2023-04-23T03:09:15;100380;;;21;44
33432;BME280;35187;31.882;34.828;2023-04-23T03:11:49;100380;;;21;44
33432;BME280;35187;31.882;34.828;2023-04-23T03:14:20;100380;;;21;44
33432;BME280;35187;31.882;34.828;2023-04-23T03:16:51;100380;;;21;44
33432;BME280;35187;31.882;34.828;2023-04-23T03:19:20;100390;;;21;44
33432;BME280;35187;31.882;34.828;2023-04-23T03:21:49;100390;;;21;44
33432;BME280;35187;31.882;34.828;2023-04-23T03:24:19;100390;;;21;44
33432;BME280;35187;31.882;34.828;2023-04-23T03:26:47;100380;;;21;44
33432;BME280;35187;31.882;34.828;2023-04-23T03:29:17;100390;;;21;44
33432;BME280;35187;31.882;34.828;2023-04-23T03:31:46;100390;;;21;44
33432;BME280;35187;31.882;34.828;2023-04-23T03:34:15;100390;;;21;44
33432;BME280;35187;31.882;34.828;2023-04-23T03:36:45;100380;;;21;44
33432;BME280;35187;31.882;34.828;2023-04-23T03:39:19;100380;;;21;44
33432;BME280;35187;31.882;34.828;2023-04-23T03:41:51;100380;;;21;44
33432;BME280;35187;31.882;34.828;2023-04-23T03:44:20;100380;;;21;44
33432;BME280;35187;31.882;34.828;2023-04-23T03:46:55;100370;;;21;44
33432;BME280;35187;31.882;34.828;2023-04-23T03:49:25;100380;;;21;44
33432;BME280;35187;31.882;34.828;2023-04-23T03:51:55;100380;;;21;44
33432;BME280;35187;31.882;34.828;2023-04-23T03:54:24;100380;;;21;44
33432;BME280;35187;31.882;34.828;2023-04-23T03:56:53;100390;;;21;44
33432;BME280;35187;31.882;34.828;2023-04-23T03:59:22;100400;;;21;44
33432;BME280;35187;31.882;34.828;2023-04-23T04:01:50;100400;;;21;44
33432;BME280;35187;31.882;34.828;2023-04-23T04:04:28;100390;;;21;44
33432;BME280;35187;31.882;34.828;2023-04-23T04:06:58;100390;;;21;44
33432;BME280;35187;31.882;34.828;2023-04-23T04:09:32;100390;;;21;44
33432;BME280;35187;31.882;34.828;2023-04-23T04:12:01;100390;;;21;44
33432;BME280;35187;31.882;34.828;2023-04-23T04:14:30;100380;;;21;44
33432;BME280;35187;31.882;34.828;2023-04-23T04:17:00;100380;;;21;44
33432;BME280;35187;31.882;34.828;2023-04-23T04:19:29;100380;;;21;44
33432;BME280;35187;31.882;34.828;2023-04-23T04:21:58;100390;;;21;44
33432;BME280;35187;31.882;34.828;2023-04-23T04:24:28;100390;;;21;44
33432;BME280;35187;31.882;34.828;2023-04-23T04:26:57;100390;;;21;44
33432;BME280;35187;31.882;34.828;2023-04-23T04:29:26;100380;;;21;44
33432;BME280;35187;31.882;34.828;2023-04-23T04:31:55;100380;;;21;44
33432;BME280;35187;31.882;34.828;2023-04-23T04:34:30;100380;;;21;44
33432;BME280;35187;31.882;34.828;2023-04-23T04:36:59;100380;;;21;44
33432;BME280;35187;31.882;34.828;2023-04-23T04:39:28;100380;;;21;44
33432;BME280;35187;31.882;34.828;2023-04-23T04:41:57;100380;;;21;44
33432;BME280;35187;31.882;34.828;2023-04-23T04:44:28;100390;;;21;44
33432;BME280;35187;31.882;34.828;2023-04-23T04:46:58;100390;;;21;44
33432;BME280;35187;31.882;34.828;2023-04-23T04:49:32;100390;;;21;44
33432;BME280;35187;31.882;34.828;2023-04-23T04:52:01;100390;;;21;44
33432;BME280;35187;31.882;34.828;2023-04-23T04:54:30;100390;;;21;44
33432;BME280;35187;31.882;34.828;2023-04-23T04:56:59;100400;;;21;44
33432;BME280;35187;31.882;34.828;2023-04-23T04:59:28;100410;;;21;44
33432;BME280;35187;31.882;34.828;2023-04-23T05:01:56;100410;;;21;44
33432;BME280;35187;31.882;34.828;2023-04-23T05:04:32;100400;;;21;44
33432;BME280;35187;31.882;34.828;2023-04-23T05:07:02;100400;;;21;44
33432;BME280;35187;31.882;34.828;2023-04-23T05:09:31;100400;;;21;44
33432;BME280;35187;31.882;34.828;2023-04-23T05:12:00;100400;;;21;44
33432;BME280;35187;31.882;34.828;2023-04-23T05:14:29;100410;;;21;44
33432;BME280;35187;31.882;34.828;2023-04-23T05:17:03;100410;;;21;44
33432;BME280;35187;31.882;34.828;2023-04-23T05:19:32;100410;;;21;44
33432;BME280;35187;31.882;34.828;2023-04-23T05:22:01;100410;;;21;44
33432;BME280;35187;31.882;34.828;2023-04-23T05:24:31;100410;;;21;45
33432;BME280;35187;31.882;34.828;2023-04-23T05:27:06;100410;;;21;44
33432;BME280;35187;31.882;34.828;2023-04-23T05:29:39;100420;;;21;45
33432;BME280;35187;31.882;34.828;2023-04-23T05:32:09;100410;;;21;44
33432;BME280;35187;31.882;34.828;2023-04-23T05:34:38;100400;;;21;45
33432;BME280;35187;31.882;34.828;2023-04-23T05:37:07;100410;;;21;44
33432;BME280;35187;31.882;34.828;2023-04-23T05:39:36;100410;;;21;45
33432;BME280;35187;31.882;34.828;2023-04-23T05:42:07;100410;;;21;44
33432;BME280;35187;31.882;34.828;2023-04-23T05:44:36;100420;;;21;45
33432;BME280;35187;31.882;34.828;2023-04-23T05:47:05;100430;;;21;44
33432;BME280;35187;31.882;34.828;2023-04-23T05:49:34;100440;;;21;44
33432;BME280;35187;31.882;34.828;2023-04-23T05:52:03;100440;;;21;45
33432;BME280;35187;31.882;34.828;2023-04-23T05:54:32;100450;;;21;44
33432;BME280;35187;31.882;34.828;2023-04-23T05:57:01;100450;;;21;44
33432;BME280;35187;31.882;34.828;2023-04-23T05:59:30;100450;;;21;44
33432;BME280;35187;31.882;34.828;2023-04-23T06:02:00;100450;;;21;44
33432;BME280;35187;31.882;34.828;2023-04-23T06:04:30;100460;;;21;44
33432;BME280;35187;31.882;34.828;2023-04-23T06:06:59;100460;;;21;44
33432;BME280;35187;31.882;34.828;2023-04-23T06:09:28;100470;;;21;44
33432;BME280;35187;31.882;34.828;2023-04-23T06:11:57;100480;;;21;45
33432;BME280;35187;31.882;34.828;2023-04-23T06:14:26;100480;;;21;45
33432;BME280;35187;31.882;34.828;2023-04-23T06:16:56;100480;;;21;45
33432;BME280;35187;31.882;34.828;2023-04-23T06:19:27;100480;;;21;45
33432;BME280;35187;31.882;34.828;2023-04-23T06:21:57;100480;;;21;45
33432;BME280;35187;31.882;34.828;2023-04-23T06:24:26;100470;;;21;45
33432;BME280;35187;31.882;34.828;2023-04-23T06:26:59;100470;;;21;45
33432;BME280;35187;31.882;34.828;2023-04-23T06:29:29;100480;;;21;45
33432;BME280;35187;31.882;34.828;2023-04-23T06:32:01;100480;;;21;45
33432;BME280;35187;31.882;34.828;2023-04-23T06:34:36;100480;;;21;45
33432;BME280;35187;31.882;34.828;2023-04-23T06:37:05;100480;;;21;45
33432;BME280;35187;31.882;34.828;2023-04-23T06:39:34;100480;;;21;45
33432;BME280;35187;31.882;34.828;2023-04-23T06:42:05;100480;;;21;45
33432;BME280;35187;31.882;34.828;2023-04-23T06:44:39;100480;;;21;45
33432;BME280;35187;31.882;34.828;2023-04-23T06:47:07;100480;;;21;45
33432;BME280;35187;31.882;34.828;2023-04-23T06:49:44;100490;;;21;45
33432;BME280;35187;31.882;34.828;2023-04-23T06:52:13;100480;;;21;45
33432;BME280;35187;31.882;34.828;2023-04-23T06:54:42;100470;;;21;45
33432;BME280;35187;31.882;34.828;2023-04-23T06:57:11;100470;;;21;45
33432;BME280;35187;31.882;34.828;2023-04-23T06:59:41;100470;;;21;45
33432;BME280;35187;31.882;34.828;2023-04-23T07:02:10;100470;;;21;45
33432;BME280;35187;31.882;34.828;2023-04-23T07:04:40;100470;;;21;45
33432;BME280;35187;31.882;34.828;2023-04-23T07:07:09;100470;;;21;45
33432;BME280;35187;31.882;34.828;2023-04-23T07:09:38;100470;;;21;45
33432;BME280;35187;31.882;34.828;2023-04-23T07:12:07;100470;;;21;45
33432;BME280;35187;31.882;34.828;2023-04-23T07:14:36;100460;;;21;45
33432;BME280;35187;31.882;34.828;2023-04-23T07:17:05;100460;;;21;45
33432;BME280;35187;31.882;34.828;2023-04-23T07:19:35;100460;;;21;45
33432;BME280;35187;31.882;34.828;2023-04-23T07:23:58;100460;;;21;46
33432;BME280;35187;31.882;34.828;2023-04-23T07:26:29;100470;;;21;46
33432;BME280;35187;31.882;34.828;2023-04-23T07:28:58;100470;;;21;46
33432;BME280;35187;31.882;34.828;2023-04-23T07:31:29;100480;;;21;46
33432;BME280;35187;31.882;34.828;2023-04-23T07:33:58;100480;;;21;46
33432;BME280;35187;31.882;34.828;2023-04-23T07:36:39;100480;;;21;47
33432;BME280;35187;31.882;34.828;2023-04-23T07:39:20;100490;;;21;47
33432;BME280;35187;31.882;34.828;2023-04-23T07:41:59;100490;;;21;48
33432;BME280;35187;31.882;34.828;2023-04-23T07:44:28;100500;;;21;48
33432;BME280;35187;31.882;34.828;2023-04-23T07:46:57;100510;;;21;48
33432;BME280;35187;31.882;34.828;2023-04-23T07:49:31;100510;;;21;48
33432;BME280;35187;31.882;34.828;2023-04-23T07:52:07;100500;;;21;48
33432;BME280;35187;31.882;34.828;2023-04-23T07:54:37;100500;;;21;48
33432;BME280;35187;31.882;34.828;2023-04-23T07:57:06;100490;;;21;47
33432;BME280;35187;31.882;34.828;2023-04-23T07:59:35;100490;;;21;47
33432;BME280;35187;31.882;34.828;2023-04-23T08:02:10;100490;;;21;48
33432;BME280;35187;31.882;34.828;2023-04-23T08:04:39;100480;;;21;48
33432;BME280;35187;31.882;34.828;2023-04-23T08:07:08;100490;;;21;48
33432;BME280;35187;31.882;34.828;2023-04-23T08:09:37;100490;;;21;48
33432;BME280;35187;31.882;34.828;2023-04-23T08:12:07;100500;;;21;48
33432;BME280;35187;31.882;34.828;2023-04-23T08:14:37;100500;;;21;48
33432;BME280;35187;31.882;34.828;2023-04-23T08:17:06;100500;;;21;48
33432;BME280;35187;31.882;34.828;2023-04-23T08:19:35;100500;;;21;48
33432;BME280;35187;31.882;34.828;2023-04-23T08:22:04;100490;;;21;48
33432;BME280;35187;31.882;34.828;2023-04-23T08:24:33;100480;;;21;48
33432;BME280;35187;31.882;34.828;2023-04-23T08:27:03;100480;;;21;48
33432;BME280;35187;31.882;34.828;2023-04-23T08:29:33;100480;;;21;48
33432;BME280;35187;31.882;34.828;2023-04-23T08:32:17;100480;;;21;48
33432;BME280;35187;31.882;34.828;2023-04-23T08:35:03;100490;;;21;48
33432;BME280;35187;31.882;34.828;2023-04-23T08:37:36;100490;;;21;48
33432;BME280;35187;31.882;34.828;2023-04-23T08:40:12;100490;;;21;48
33432;BME280;35187;31.882;34.828;2023-04-23T08:42:44;100490;;;21;48
33432;BME280;35187;31.882;34.828;2023-04-23T08:45:17;100490;;;21;48
33432;BME280;35187;31.882;34.828;2023-04-23T08:47:46;100490;;;21;48
33432;BME280;35187;31.882;34.828;2023-04-23T08:50:17;100490;;;21;48
33432;BME280;35187;31.882;34.828;2023-04-23T08:52:49;100490;;;21;48
33432;BME280;35187;31.882;34.828;2023-04-23T08:55:18;100490;;;21;48
33432;BME280;35187;31.882;34.828;2023-04-23T08:57:57;100490;;;21;48
33432;BME280;35187;31.882;34.828;2023-04-23T09:00:27;100490;;;21;48
33432;BME280;35187;31.882;34.828;2023-04-23T09:02:58;100490;;;21;48
33432;BME280;35187;31.882;34.828;2023-04-23T09:05:27;100480;;;21;48
33432;BME280;35187;31.882;34.828;2023-04-23T09:08:02;100480;;;21;48
33432;BME280;35187;31.882;34.828;2023-04-23T09:10:31;100490;;;21;48
33432;BME280;35187;31.882;34.828;2023-04-23T09:13:05;100490;;;21;48
33432;BME280;35187;31.882;34.828;2023-04-23T09:15:35;100490;;;21;48
33432;BME280;35187;31.882;34.828;2023-04-23T09:18:08;100490;;;21;48
33432;BME280;35187;31.882;34.828;2023-04-23T09:20:47;100480;;;21;49
33432;BME280;35187;31.882;34.828;2023-04-23T09:23:21;100480;;;21;48
33432;BME280;35187;31.882;34.828;2023-04-23T09:25:50;100470;;;21;49
33432;BME280;35187;31.882;34.828;2023-04-23T09:28:21;100470;;;21;47
33432;BME280;35187;31.882;34.828;2023-04-23T09:31:04;100470;;;21;47
33432;BME280;35187;31.882;34.828;2023-04-23T09:33:41;100460;;;21;47
33432;BME280;35187;31.882;34.828;2023-04-23T09:36:10;100460;;;21;47
33432;BME280;35187;31.882;34.828;2023-04-23T09:38:42;100460;;;21;47
33432;BME280;35187;31.882;34.828;2023-04-23T09:41:28;100460;;;21;47
33432;BME280;35187;31.882;34.828;2023-04-23T09:44:02;100450;;;21;46
33432;BME280;35187;31.882;34.828;2023-04-23T09:46:33;100450;;;21;46
33432;BME280;35187;31.882;34.828;2023-04-23T09:49:03;100440;;;21;46
33432;BME280;35187;31.882;34.828;2023-04-23T09:51:34;100450;;;21;47
33432;BME280;35187;31.882;34.828;2023-04-23T09:54:07;100450;;;21;47
33432;BME280;35187;31.882;34.828;2023-04-23T09:56:38;100450;;;21;47
33432;BME280;35187;31.882;34.828;2023-04-23T09:59:19;100450;;;21;47
33432;BME280;35187;31.882;34.828;2023-04-23T10:01:48;100440;;;21;47
33432;BME280;35187;31.882;34.828;2023-04-23T10:04:18;100440;;;21;47
33432;BME280;35187;31.882;34.828;2023-04-23T10:06:48;100440;;;21;47
33432;BME280;35187;31.882;34.828;2023-04-23T10:09:21;100440;;;21;47
33432;BME280;35187;31.882;34.828;2023-04-23T10:12:05;100440;;;21;47
33432;BME280;35187;31.882;34.828;2023-04-23T10:14:34;100450;;;21;47
33432;BME280;35187;31.882;34.828;2023-04-23T10:17:09;100440;;;21;47
33432;BME280;35187;31.882;34.828;2023-04-23T10:19:39;100430;;;21;47
33432;BME280;35187;31.882;34.828;2023-04-23T10:22:12;100420;;;21;47
33432;BME280;35187;31.882;34.828;2023-04-23T10:24:44;100420;;;21;47
33432;BME280;35187;31.882;34.828;2023-04-23T10:27:15;100410;;;21;47
33432;BME280;35187;31.882;34.828;2023-04-23T10:29:45;100410;;;21;47
33432;BME280;35187;31.882;34.828;2023-04-23T10:32:22;100410;;;21;47
33432;BME280;35187;31.882;34.828;2023-04-23T10:34:54;100400;;;21;47
33432;BME280;35187;31.882;34.828;2023-04-23T10:37:24;100400;;;21;47
33432;BME280;35187;31.882;34.828;2023-04-23T10:39:55;100400;;;21;47
33432;BME280;35187;31.882;34.828;2023-04-23T10:42:28;100400;;;21;47
33432;BME280;35187;31.882;34.828;2023-04-23T10:44:58;100400;;;21;47
33432;BME280;35187;31.882;34.828;2023-04-23T10:47:27;100400;;;21;47
33432;BME280;35187;31.882;34.828;2023-04-23T10:49:56;100410;;;21;47
33432;BME280;35187;31.882;34.828;2023-04-23T10:52:25;100400;;;21;47
33432;BME280;35187;31.882;34.828;2023-04-23T10:54:59;100390;;;21;47
33432;BME280;35187;31.882;34.828;2023-04-23T10:57:28;100400;;;21;47
33432;BME280;35187;31.882;34.828;2023-04-23T10:59:57;100380;;;21;47
33432;BME280;35187;31.882;34.828;2023-04-23T11:02:42;100390;;;21;47
33432;BME280;35187;31.882;34.828;2023-04-23T11:05:11;100390;;;21;47
33432;BME280;35187;31.882;34.828;2023-04-23T11:07:40;100380;;;21;47
33432;BME280;35187;31.882;34.828;2023-04-23T11:10:12;100370;;;21;47
33432;BME280;35187;31.882;34.828;2023-04-23T11:12:42;100370;;;21;47
33432;BME280;35187;31.882;34.828;2023-04-23T11:15:13;100380;;;21;47
33432;BME280;35187;31.882;34.828;2023-04-23T11:18:14;100380;;;21;47
33432;BME280;35187;31.882;34.828;2023-04-23T11:20:43;100380;;;21;47
33432;BME280;35187;31.882;34.828;2023-04-23T11:23:29;100380;;;21;47
33432;BME280;35187;31.882;34.828;2023-04-23T11:25:59;100380;;;21;47
33432;BME280;35187;31.882;34.828;2023-04-23T11:28:30;100380;;;21;47
33432;BME280;35187;31.882;34.828;2023-04-23T11:31:03;100380;;;21;47
33432;BME280;35187;31.882;34.828;2023-04-23T11:33:32;100370;;;21;47
33432;BME280;35187;31.882;34.828;2023-04-23T11:36:02;100370;;;21;47
33432;BME280;35187;31.882;34.828;2023-04-23T11:38:36;100370;;;21;47
33432;BME280;35187;31.882;34.828;2023-04-23T11:41:05;100370;;;21;47
33432;BME280;35187;31.882;34.828;2023-04-23T11:43:35;100370;;;21;47
33432;BME280;35187;31.882;34.828;2023-04-23T11:46:04;100370;;;21;47
33432;BME280;35187;31.882;34.828;2023-04-23T11:48:34;100370;;;21;47
33432;BME280;35187;31.882;34.828;2023-04-23T11:51:04;100370;;;21;47
33432;BME280;35187;31.882;34.828;2023-04-23T11:53:33;100380;;;21;47
33432;BME280;35187;31.882;34.828;2023-04-23T11:56:03;100380;;;21;47
33432;BME280;35187;31.882;34.828;2023-04-23T11:58:33;100390;;;21;47
33432;BME280;35187;31.882;34.828;2023-04-23T12:01:02;100380;;;21;47
33432;BME280;35187;31.882;34.828;2023-04-23T12:03:31;100380;;;21;47
33432;BME280;35187;31.882;34.828;2023-04-23T12:06:00;100380;;;21;47
33432;BME280;35187;31.882;34.828;2023-04-23T12:08:32;100390;;;21;47
33432;BME280;35187;31.882;34.828;2023-04-23T12:11:02;100390;;;21;47
33432;BME280;35187;31.882;34.828;2023-04-23T12:13:32;100390;;;21;47
33432;BME280;35187;31.882;34.828;2023-04-23T12:16:02;100390;;;21;47
33432;BME280;35187;31.882;34.828;2023-04-23T12:18:33;100390;;;21;47
33432;BME280;35187;31.882;34.828;2023-04-23T12:21:05;100380;;;21;47
33432;BME280;35187;31.882;34.828;2023-04-23T12:23:35;100380;;;21;47
33432;BME280;35187;31.882;34.828;2023-04-23T12:26:10;100380;;;21;47
33432;BME280;35187;31.882;34.828;2023-04-23T12:28:45;100380;;;21;47
33432;BME280;35187;31.882;34.828;2023-04-23T12:31:19;100380;;;21;47
33432;BME280;35187;31.882;34.828;2023-04-23T12:33:56;100380;;;21;47
33432;BME280;35187;31.882;34.828;2023-04-23T12:36:27;100390;;;21;47
33432;BME280;35187;31.882;34.828;2023-04-23T12:39:19;100380;;;21;47
33432;BME280;35187;31.882;34.828;2023-04-23T12:41:50;100380;;;21;47
33432;BME280;35187;31.882;34.828;2023-04-23T12:44:19;100380;;;21;47
33432;BME280;35187;31.882;34.828;2023-04-23T12:46:53;100380;;;21;47
33432;BME280;35187;31.882;34.828;2023-04-23T12:49:22;100380;;;21;47
33432;BME280;35187;31.882;34.828;2023-04-23T12:51:50;100390;;;21;47
33432;BME280;35187;31.882;34.828;2023-04-23T12:54:19;100390;;;21;47
33432;BME280;35187;31.882;34.828;2023-04-23T12:56:48;100390;;;21;48
33432;BME280;35187;31.882;34.828;2023-04-23T12:59:17;100390;;;21;47
33432;BME280;35187;31.882;34.828;2023-04-23T13:01:51;100390;;;21;47
33432;BME280;35187;31.882;34.828;2023-04-23T13:04:20;100400;;;21;47
33432;BME280;35187;31.882;34.828;2023-04-23T13:06:56;100400;;;22;48
33432;BME280;35187;31.882;34.828;2023-04-23T13:09:25;100400;;;21;47
33432;BME280;35187;31.882;34.828;2023-04-23T13:11:54;100400;;;21;47
33432;BME280;35187;31.882;34.828;2023-04-23T13:14:23;100400;;;21;47
33432;BME280;35187;31.882;34.828;2023-04-23T13:16:52;100400;;;21;47
33432;BME280;35187;31.882;34.828;2023-04-23T13:19:21;100400;;;21;48
33432;BME280;35187;31.882;34.828;2023-04-23T13:21:50;100400;;;21;48
33432;BME280;35187;31.882;34.828;2023-04-23T13:24:18;100410;;;22;47
33432;BME280;35187;31.882;34.828;2023-04-23T13:26:47;100400;;;21;47
33432;BME280;35187;31.882;34.828;2023-04-23T13:29:16;100400;;;22;47
33432;BME280;35187;31.882;34.828;2023-04-23T13:31:45;100410;;;21;47
33432;BME280;35187;31.882;34.828;2023-04-23T13:34:13;100400;;;21;47
33432;BME280;35187;31.882;34.828;2023-04-23T13:36:42;100400;;;21;47
33432;BME280;35187;31.882;34.828;2023-04-23T13:39:11;100410;;;21;47
33432;BME280;35187;31.882;34.828;2023-04-23T13:41:40;100410;;;21;47
33432;BME280;35187;31.882;34.828;2023-04-23T13:44:09;100410;;;21;47
33432;BME280;35187;31.882;34.828;2023-04-23T13:46:37;100410;;;21;47
33432;BME280;35187;31.882;34.828;2023-04-23T13:49:06;100410;;;21;47
33432;BME280;35187;31.882;34.828;2023-04-23T13:51:35;100410;;;21;47
33432;BME280;35187;31.882;34.828;2023-04-23T13:54:04;100410;;;21;47
33432;BME280;35187;31.882;34.828;2023-04-23T13:56:33;100410;;;21;47
33432;BME280;35187;31.882;34.828;2023-04-23T13:59:01;100410;;;22;47
33432;BME280;35187;31.882;34.828;2023-04-23T14:01:30;100420;;;21;47
33432;BME280;35187;31.882;34.828;2023-04-23T14:04:48;100410;;;21;47
33432;BME280;35187;31.882;34.828;2023-04-23T14:07:17;100410;;;21;48
33432;BME280;35187;31.882;34.828;2023-04-23T14:09:45;100410;;;21;48
33432;BME280;35187;31.882;34.828;2023-04-23T14:12:14;100410;;;21;48
33432;BME280;35187;31.882;34.828;2023-04-23T14:14:43;100410;;;21;48
33432;BME280;35187;31.882;34.828;2023-04-23T14:17:12;100420;;;21;48
33432;BME280;35187;31.882;34.828;2023-04-23T14:19:40;100420;;;21;48
33432;BME280;35187;31.882;34.828;2023-04-23T14:22:09;100410;;;21;48
33432;BME280;35187;31.882;34.828;2023-04-23T14:24:43;100410;;;21;48
33432;BME280;35187;31.882;34.828;2023-04-23T14:27:12;100420;;;21;48
33432;BME280;35187;31.882;34.828;2023-04-23T14:29:45;100420;;;21;48
33432;BME280;35187;31.882;34.828;2023-04-23T14:32:14;100420;;;21;48
33432;BME280;35187;31.882;34.828;2023-04-23T14:34:43;100420;;;21;48
33432;BME280;35187;31.882;34.828;2023-04-23T14:37:12;100420;;;21;48
33432;BME280;35187;31.882;34.828;2023-04-23T14:39:41;100420;;;21;48
33432;BME280;35187;31.882;34.828;2023-04-23T14:42:10;100410;;;21;48
33432;BME280;35187;31.882;34.828;2023-04-23T14:45:29;100410;;;21;48